Terminal Aerodrome Forecast
Issued by NWS Nashville, TN

Current Version | Previous Version | Text Only | Print | Product List | Glossary On
Versions: 1 2 3 4 5 6 7 8 9 10 11 12 13
386
FTUS44 KOHX 071740
TAFCSV
TAF
KCSV 071740Z 0718/0818 32004KT P6SM SKC
     FM080400 23006KT P6SM OVC100
     FM080700 23007KT P6SM -SHRA OVC050
     FM081000 27003KT 2SM -RA BR OVC007
     FM081400 28008G14KT 2SM -RASN BR OVC015=

USA.gov is the U.S. government's official web portal to all federal, state and local government web resources and services.